createdAt,value
2023-05-15T00:00:09.398Z,89.69
2023-05-15T00:01:09.407Z,89.59
2023-05-15T00:02:09.376Z,89.69
2023-05-15T00:03:09.503Z,89.89
2023-05-15T00:04:09.326Z,90.34
2023-05-15T00:05:09.450Z,90.44
2023-05-15T00:06:09.350Z,90.44
2023-05-15T00:07:09.339Z,90.44
2023-05-15T00:08:09.289Z,90.75
2023-05-15T00:09:09.299Z,90.95
2023-05-15T00:10:09.258Z,91.05
2023-05-15T00:11:09.270Z,90.95
2023-05-15T00:12:09.304Z,91.16
2023-05-15T00:13:09.264Z,91.05
2023-05-15T00:14:09.209Z,91.05
2023-05-15T00:15:09.204Z,91.05
2023-05-15T00:16:09.254Z,91.05
2023-05-15T00:17:09.191Z,90.95
2023-05-15T00:18:09.169Z,90.95
2023-05-15T00:19:09.257Z,90.75
2023-05-15T00:20:09.140Z,90.95
2023-05-15T00:21:09.159Z,90.85
2023-05-15T00:22:09.117Z,90.95
2023-05-15T00:23:09.088Z,90.75
2023-05-15T00:24:09.053Z,90.85
2023-05-15T00:25:09.066Z,90.85
2023-05-15T00:26:09.050Z,90.85
2023-05-15T00:27:09.065Z,91.05
2023-05-15T00:28:09.010Z,91.16
2023-05-15T00:29:09.014Z,91.05
2023-05-15T00:30:08.987Z,91.16
2023-05-15T00:31:09.087Z,90.85
2023-05-15T00:32:08.967Z,90.85
2023-05-15T00:33:09.017Z,90.85
2023-05-15T00:34:08.946Z,90.95
2023-05-15T00:35:08.972Z,90.64
2023-05-15T00:36:08.904Z,90.64
2023-05-15T00:37:08.927Z,90.75
2023-05-15T00:38:08.886Z,90.64
2023-05-15T00:39:08.897Z,90.64
2023-05-15T00:40:08.883Z,90.75
2023-05-15T00:41:08.865Z,90.75
2023-05-15T00:42:08.831Z,90.95
2023-05-15T00:43:08.917Z,90.85
2023-05-15T00:44:08.797Z,90.75
2023-05-15T00:45:08.820Z,90.85
2023-05-15T00:46:08.766Z,91.16
2023-05-15T00:47:08.842Z,91.50
2023-05-15T00:48:08.781Z,91.91
2023-05-15T00:49:08.768Z,92.01
2023-05-15T00:50:08.737Z,92.11
2023-05-15T00:51:08.740Z,92.22
2023-05-15T00:52:08.796Z,92.22
2023-05-15T00:53:08.746Z,92.22
2023-05-15T00:54:08.708Z,92.22
2023-05-15T00:55:08.676Z,92.32
2023-05-15T00:56:08.653Z,92.42
2023-05-15T00:57:08.669Z,92.52
2023-05-15T00:58:08.614Z,92.52
2023-05-15T00:59:08.633Z,92.63
2023-05-15T01:00:08.595Z,92.63
2023-05-15T01:01:08.871Z,92.42
2023-05-15T01:02:08.593Z,92.32
2023-05-15T01:03:08.665Z,92.52
2023-05-15T01:04:08.574Z,92.72
2023-05-15T01:05:08.585Z,92.93
2023-05-15T01:06:08.511Z,93.03
2023-05-15T01:07:08.525Z,92.93
2023-05-15T01:08:08.492Z,92.83
2023-05-15T01:09:08.489Z,92.63
2023-05-15T01:10:08.471Z,92.63
2023-05-15T01:11:08.467Z,92.63
2023-05-15T01:12:08.427Z,92.42
2023-05-15T01:13:08.488Z,92.32
2023-05-15T01:14:08.399Z,92.22
2023-05-15T01:15:08.409Z,92.22
2023-05-15T01:16:08.376Z,91.91
2023-05-15T01:17:08.418Z,91.91
2023-05-15T01:18:08.440Z,91.91
2023-05-15T01:19:08.483Z,92.01
2023-05-15T01:20:08.320Z,92.11
2023-05-15T01:21:08.325Z,92.32
2023-05-15T01:22:08.297Z,92.32
2023-05-15T01:23:08.308Z,92.42
2023-05-15T01:24:08.302Z,92.52
2023-05-15T01:25:08.286Z,92.52
2023-05-15T01:26:08.230Z,92.63
2023-05-15T01:27:08.276Z,92.52
2023-05-15T01:28:08.257Z,92.38
2023-05-15T01:29:08.213Z,92.27
2023-05-15T01:30:08.238Z,92.27
2023-05-15T01:31:08.187Z,92.18
2023-05-15T01:32:08.221Z,92.07
2023-05-15T01:33:08.273Z,91.77
2023-05-15T01:34:08.168Z,91.66
2023-05-15T01:35:08.135Z,91.66
2023-05-15T01:36:08.147Z,91.56
2023-05-15T01:37:08.111Z,91.36
2023-05-15T01:38:08.116Z,91.56
2023-05-15T01:39:08.099Z,91.56
2023-05-15T01:40:08.085Z,91.46
2023-05-15T01:41:08.031Z,91.56
2023-05-15T01:42:08.043Z,91.66
2023-05-15T01:43:08.026Z,91.56
2023-05-15T01:44:08.022Z,91.56
2023-05-15T01:45:08.025Z,91.56
2023-05-15T01:46:08.078Z,91.56
2023-05-15T01:47:07.983Z,91.66
2023-05-15T01:48:08.017Z,91.46
2023-05-15T01:49:07.935Z,91.56
2023-05-15T01:50:07.959Z,91.77
2023-05-15T01:51:07.916Z,91.77
2023-05-15T01:52:07.934Z,91.71
2023-05-15T01:53:07.874Z,91.81
2023-05-15T01:54:07.887Z,92.22
2023-05-15T01:55:07.882Z,92.46
2023-05-15T01:56:07.878Z,92.67
2023-05-15T01:57:07.825Z,92.87
2023-05-15T01:58:07.859Z,93.07
2023-05-15T01:59:07.791Z,93.38
2023-05-15T02:00:07.828Z,93.69
2023-05-15T02:01:07.782Z,93.99
2023-05-15T02:02:07.907Z,93.99
2023-05-15T02:03:07.980Z,94.09
2023-05-15T02:04:07.770Z,94.04
2023-05-15T02:05:07.717Z,93.79
2023-05-15T02:06:07.753Z,93.93
2023-05-15T02:07:07.702Z,94.04
2023-05-15T02:08:07.705Z,93.89
2023-05-15T02:09:07.664Z,93.99
2023-05-15T02:10:07.717Z,93.89
2023-05-15T02:11:07.647Z,93.79
2023-05-15T02:12:07.638Z,93.69
2023-05-15T02:13:07.616Z,93.59
2023-05-15T02:14:07.655Z,93.59
2023-05-15T02:15:07.601Z,93.48
2023-05-15T02:16:07.681Z,93.38
2023-05-15T02:17:07.580Z,93.28
2023-05-15T02:18:07.612Z,93.38
2023-05-15T02:19:07.598Z,93.48
2023-05-15T02:20:07.552Z,93.59
2023-05-15T02:21:07.509Z,93.59
2023-05-15T02:22:07.525Z,93.69
2023-05-15T02:23:07.491Z,93.59
2023-05-15T02:24:07.519Z,93.69
2023-05-15T02:25:07.482Z,93.69
2023-05-15T02:26:07.464Z,93.79
2023-05-15T02:27:07.434Z,93.79
2023-05-15T02:28:07.437Z,93.64
2023-05-15T02:29:07.412Z,93.54
2023-05-15T02:30:07.430Z,93.44
2023-05-15T02:31:07.384Z,93.33
2023-05-15T02:32:07.494Z,93.44
2023-05-15T02:33:07.412Z,93.44
2023-05-15T02:34:07.377Z,93.33
2023-05-15T02:35:07.331Z,93.24
2023-05-15T02:36:07.338Z,93.33
2023-05-15T02:37:07.289Z,93.24
2023-05-15T02:38:07.311Z,93.24
2023-05-15T02:39:07.326Z,93.13
2023-05-15T02:40:07.315Z,93.03
2023-05-15T02:41:07.243Z,92.83
2023-05-15T02:42:07.271Z,92.83
2023-05-15T02:43:07.212Z,92.93
2023-05-15T02:44:07.243Z,92.83
2023-05-15T02:45:07.206Z,92.93
2023-05-15T02:46:07.249Z,92.93
2023-05-15T02:47:07.181Z,92.72
2023-05-15T02:48:07.270Z,92.72
2023-05-15T02:49:07.141Z,92.87
2023-05-15T02:50:07.184Z,92.77
2023-05-15T02:51:07.113Z,92.77
2023-05-15T02:52:07.139Z,92.67
2023-05-15T02:53:07.090Z,92.77
2023-05-15T02:54:07.109Z,92.77
2023-05-15T02:55:07.082Z,92.77
2023-05-15T02:56:07.093Z,92.87
2023-05-15T02:57:07.014Z,93.07
2023-05-15T02:58:07.085Z,92.97
2023-05-15T02:59:07.013Z,93.07
2023-05-15T03:00:07.036Z,93.07
2023-05-15T03:01:07.055Z,92.97
2023-05-15T03:02:06.990Z,93.18
2023-05-15T03:03:06.958Z,93.18
2023-05-15T03:04:06.980Z,93.18
2023-05-15T03:05:06.923Z,93.28
2023-05-15T03:06:06.935Z,93.28
2023-05-15T03:07:06.922Z,93.32
2023-05-15T03:08:06.899Z,93.43
2023-05-15T03:09:06.886Z,93.43
2023-05-15T03:10:06.909Z,93.43
2023-05-15T03:11:06.838Z,93.63
2023-05-15T03:12:06.884Z,93.63
2023-05-15T03:13:06.861Z,93.63
2023-05-15T03:14:06.891Z,93.73
2023-05-15T03:15:06.806Z,93.73
2023-05-15T03:16:06.801Z,93.84
2023-05-15T03:17:06.761Z,93.93
2023-05-15T03:18:06.843Z,93.84
2023-05-15T03:19:06.791Z,93.93
2023-05-15T03:20:06.784Z,93.99
2023-05-15T03:21:06.702Z,93.89
2023-05-15T03:22:06.720Z,93.73
2023-05-15T03:23:06.704Z,93.63
2023-05-15T03:24:06.718Z,93.63
2023-05-15T03:25:06.669Z,93.84
2023-05-15T03:26:06.668Z,93.73
2023-05-15T03:27:06.658Z,93.93
2023-05-15T03:28:06.655Z,93.93
2023-05-15T03:29:06.643Z,93.93
2023-05-15T03:30:06.621Z,93.73
2023-05-15T03:31:06.625Z,93.73
2023-05-15T03:32:06.571Z,93.93
2023-05-15T03:33:06.672Z,93.93
2023-05-15T03:34:06.554Z,93.93
2023-05-15T03:35:06.545Z,93.93
2023-05-15T03:36:06.559Z,94.04
2023-05-15T03:37:06.503Z,94.04
2023-05-15T03:38:06.531Z,94.14
2023-05-15T03:39:06.463Z,94.14
2023-05-15T03:40:06.481Z,94.24
2023-05-15T03:41:06.474Z,94.14
2023-05-15T03:42:06.455Z,94.04
2023-05-15T03:43:06.414Z,94.08
2023-05-15T03:44:06.455Z,94.18
2023-05-15T03:45:06.402Z,94.38
2023-05-15T03:46:06.451Z,94.38
2023-05-15T03:47:06.369Z,94.49
2023-05-15T03:48:06.410Z,94.49
2023-05-15T03:49:06.350Z,94.38
2023-05-15T03:50:06.369Z,94.70
2023-05-15T03:51:06.324Z,94.79
2023-05-15T03:52:06.337Z,94.79
2023-05-15T03:53:06.309Z,94.79
2023-05-15T03:54:06.320Z,94.70
2023-05-15T03:55:06.266Z,94.49
2023-05-15T03:56:06.275Z,94.59
2023-05-15T03:57:06.236Z,94.70
2023-05-15T03:58:06.283Z,94.70
2023-05-15T03:59:06.202Z,94.70
2023-05-15T04:00:06.241Z,94.65
2023-05-15T04:01:06.203Z,94.55
2023-05-15T04:02:06.217Z,94.45
2023-05-15T04:03:06.248Z,94.49
2023-05-15T04:04:06.207Z,94.55
2023-05-15T04:05:06.226Z,94.45
2023-05-15T04:06:06.154Z,94.45
2023-05-15T04:07:06.111Z,94.49
2023-05-15T04:08:06.117Z,94.38
2023-05-15T04:09:06.105Z,94.49
2023-05-15T04:10:06.119Z,94.38
2023-05-15T04:11:06.067Z,94.49
2023-05-15T04:12:06.068Z,94.49
2023-05-15T04:13:06.029Z,94.49
2023-05-15T04:14:06.020Z,94.59
2023-05-15T04:15:06.030Z,94.49
2023-05-15T04:16:06.009Z,94.59
2023-05-15T04:17:05.984Z,94.70
2023-05-15T04:18:06.023Z,94.59
2023-05-15T04:19:05.969Z,94.59
2023-05-15T04:20:05.998Z,94.49
2023-05-15T04:21:05.923Z,94.70
2023-05-15T04:22:05.924Z,94.79
2023-05-15T04:23:05.904Z,94.90
2023-05-15T04:24:05.898Z,94.90
2023-05-15T04:25:05.863Z,95.00
2023-05-15T04:26:05.900Z,94.94
2023-05-15T04:27:05.896Z,95.04
2023-05-15T04:28:05.866Z,95.25
2023-05-15T04:29:05.821Z,95.25
2023-05-15T04:30:05.840Z,95.35
2023-05-15T04:31:05.806Z,95.25
2023-05-15T04:32:05.865Z,95.35
2023-05-15T04:33:05.935Z,95.45
2023-05-15T04:34:05.771Z,95.45
2023-05-15T04:35:05.736Z,95.65
2023-05-15T04:36:05.753Z,95.86
2023-05-15T04:37:05.732Z,95.92
2023-05-15T04:38:05.705Z,95.92
2023-05-15T04:39:05.674Z,95.72
2023-05-15T04:40:05.687Z,95.41
2023-05-15T04:41:05.682Z,95.20
2023-05-15T04:42:05.679Z,95.25
2023-05-15T04:43:05.643Z,95.35
2023-05-15T04:44:05.635Z,95.45
2023-05-15T04:45:05.595Z,95.56
2023-05-15T04:46:05.683Z,95.56
2023-05-15T04:47:05.591Z,95.56
2023-05-15T04:48:05.677Z,95.56
2023-05-15T04:49:05.574Z,95.56
2023-05-15T04:50:05.616Z,95.80
2023-05-15T04:51:05.514Z,96.01
2023-05-15T04:52:05.628Z,96.31
2023-05-15T04:53:05.520Z,96.51
2023-05-15T04:54:05.515Z,96.83
2023-05-15T04:55:05.546Z,97.03
2023-05-15T04:56:05.484Z,97.33
2023-05-15T04:57:05.437Z,97.44
2023-05-15T04:58:05.464Z,97.54
2023-05-15T04:59:05.424Z,97.54
2023-05-15T05:00:05.440Z,97.54
2023-05-15T05:01:05.410Z,97.44
2023-05-15T05:02:05.600Z,97.33
2023-05-15T05:03:05.414Z,97.29
2023-05-15T05:04:05.425Z,97.19
2023-05-15T05:05:05.334Z,96.98
2023-05-15T05:06:05.397Z,96.88
2023-05-15T05:07:05.309Z,96.73
2023-05-15T05:08:05.311Z,96.73
2023-05-15T05:09:05.311Z,96.73
2023-05-15T05:10:05.327Z,96.43
2023-05-15T05:11:05.270Z,96.22
2023-05-15T05:12:05.285Z,96.02
2023-05-15T05:13:05.251Z,95.92
2023-05-15T05:14:05.264Z,95.72
2023-05-15T05:15:05.202Z,95.61
2023-05-15T05:16:05.256Z,95.67
2023-05-15T05:17:05.193Z,95.67
2023-05-15T05:18:05.293Z,95.57
2023-05-15T05:19:05.221Z,95.47
2023-05-15T05:20:05.158Z,95.57
2023-05-15T05:21:05.106Z,95.47
2023-05-15T05:22:05.142Z,95.57
2023-05-15T05:23:05.127Z,95.67
2023-05-15T05:24:05.114Z,95.67
2023-05-15T05:25:05.190Z,95.67
2023-05-15T05:26:06.201Z,95.57
2023-05-15T05:27:05.059Z,95.62
2023-05-15T05:28:05.067Z,95.62
2023-05-15T05:29:05.015Z,95.62
2023-05-15T05:30:05.098Z,95.52
2023-05-15T05:31:05.116Z,95.42
2023-05-15T05:32:04.994Z,95.42
2023-05-15T05:33:05.035Z,95.32
2023-05-15T05:34:04.967Z,95.42
2023-05-15T05:35:05.001Z,95.42
2023-05-15T05:36:04.968Z,95.42
2023-05-15T05:37:04.936Z,95.42
2023-05-15T05:38:04.959Z,95.37
2023-05-15T05:39:04.880Z,95.37
2023-05-15T05:40:05.054Z,95.37
2023-05-15T05:41:04.887Z,95.37
2023-05-15T05:42:04.868Z,95.28
2023-05-15T05:43:04.870Z,95.17
2023-05-15T05:44:04.814Z,94.97
2023-05-15T05:45:04.842Z,95.07
2023-05-15T05:46:04.814Z,95.13
2023-05-15T05:47:04.843Z,95.13
2023-05-15T05:48:04.831Z,95.13
2023-05-15T05:49:04.781Z,95.13
2023-05-15T05:50:04.775Z,95.03
2023-05-15T05:51:04.770Z,95.13
2023-05-15T05:52:04.706Z,94.82
2023-05-15T05:53:04.716Z,94.92
2023-05-15T05:54:04.714Z,94.72
2023-05-15T05:55:04.714Z,94.82
2023-05-15T05:56:04.647Z,94.68
2023-05-15T05:57:04.676Z,94.47
2023-05-15T05:58:08.569Z,94.47
2023-05-15T05:59:04.678Z,94.37
2023-05-15T06:00:04.599Z,94.07
2023-05-15T06:01:04.632Z,94.17
2023-05-15T06:02:04.720Z,94.07
2023-05-15T06:03:04.620Z,94.07
2023-05-15T06:04:04.613Z,94.07
2023-05-15T06:05:04.554Z,94.07
2023-05-15T06:06:04.527Z,93.96
2023-05-15T06:07:04.538Z,93.76
2023-05-15T06:08:04.514Z,93.55
2023-05-15T06:09:04.535Z,93.66
2023-05-15T06:10:04.476Z,93.76
2023-05-15T06:11:04.497Z,93.66
2023-05-15T06:12:04.503Z,93.25
2023-05-15T06:13:04.487Z,93.31
2023-05-15T06:14:04.454Z,93.41
2023-05-15T06:15:04.439Z,93.21
2023-05-15T06:16:04.404Z,92.90
2023-05-15T06:17:04.424Z,92.80
2023-05-15T06:18:04.421Z,92.49
2023-05-15T06:19:04.492Z,92.29
2023-05-15T06:20:04.328Z,92.29
2023-05-15T06:21:04.349Z,92.40
2023-05-15T06:22:04.315Z,92.40
2023-05-15T06:23:04.327Z,92.19
2023-05-15T06:24:04.398Z,92.19
2023-05-15T06:25:04.311Z,92.19
2023-05-15T06:26:04.272Z,92.19
2023-05-15T06:27:04.267Z,91.88
2023-05-15T06:28:04.261Z,91.78
2023-05-15T06:29:04.246Z,91.58
2023-05-15T06:30:04.261Z,91.48
2023-05-15T06:31:04.298Z,91.33
2023-05-15T06:32:04.221Z,91.27
2023-05-15T06:33:04.227Z,91.38
2023-05-15T06:34:04.149Z,91.27
2023-05-15T06:35:04.172Z,91.38
2023-05-15T06:36:04.178Z,91.38
2023-05-15T06:37:04.163Z,91.58
2023-05-15T06:38:04.098Z,91.88
2023-05-15T06:39:04.111Z,92.04
2023-05-15T06:40:04.077Z,91.84
2023-05-15T06:41:04.338Z,91.53
2023-05-15T06:42:04.083Z,91.53
2023-05-15T06:43:04.062Z,91.74
2023-05-15T06:44:04.071Z,91.84
2023-05-15T06:45:04.069Z,92.04
2023-05-15T06:46:04.028Z,92.04
2023-05-15T06:47:04.051Z,91.84
2023-05-15T06:48:04.064Z,91.84
2023-05-15T06:49:03.966Z,91.84
2023-05-15T06:50:03.949Z,92.04
2023-05-15T06:51:03.976Z,92.14
2023-05-15T06:52:03.895Z,91.94
2023-05-15T06:53:03.945Z,91.94
2023-05-15T06:54:03.891Z,91.60
2023-05-15T06:55:03.977Z,91.39
2023-05-15T06:56:03.868Z,91.19
2023-05-15T06:57:03.877Z,90.88
2023-05-15T06:58:03.876Z,91.19
2023-05-15T06:59:03.858Z,91.19
2023-05-15T07:00:03.943Z,90.53
2023-05-15T07:01:03.844Z,90.64
2023-05-15T07:02:03.863Z,90.23
2023-05-15T07:03:03.870Z,89.83
2023-05-15T07:04:03.782Z,89.62
2023-05-15T07:05:03.979Z,89.42
2023-05-15T07:06:03.735Z,89.17
2023-05-15T07:07:03.772Z,89.07
2023-05-15T07:08:03.742Z,89.07
2023-05-15T07:09:04.421Z,89.23
2023-05-15T07:10:03.695Z,88.82
2023-05-15T07:11:03.721Z,88.93
2023-05-15T07:12:03.681Z,88.21
2023-05-15T07:13:03.655Z,87.71
2023-05-15T07:14:03.620Z,88.01
2023-05-15T07:15:03.644Z,88.21
2023-05-15T07:16:03.644Z,88.07
2023-05-15T07:17:03.674Z,87.77
2023-05-15T07:18:03.677Z,87.67
2023-05-15T07:19:03.705Z,87.57
2023-05-15T07:20:03.562Z,87.46
2023-05-15T07:21:03.558Z,87.06
2023-05-15T07:22:03.764Z,86.82
2023-05-15T07:23:03.539Z,86.51
2023-05-15T07:24:03.501Z,86.82
2023-05-15T07:25:03.681Z,86.10
2023-05-15T07:26:03.471Z,85.56
2023-05-15T07:27:03.477Z,85.15
2023-05-15T07:28:03.429Z,85.56
2023-05-15T07:29:03.489Z,85.46
2023-05-15T07:30:03.468Z,84.85
2023-05-15T07:31:03.502Z,84.85
2023-05-15T07:32:03.471Z,84.91
2023-05-15T07:33:03.416Z,84.81
2023-05-15T07:34:03.376Z,84.61
2023-05-15T07:35:03.400Z,84.50
2023-05-15T07:36:03.331Z,84.20
2023-05-15T07:37:03.344Z,83.90
2023-05-15T07:38:03.315Z,84.10
2023-05-15T07:39:03.414Z,84.30
2023-05-15T07:40:03.281Z,84.70
2023-05-15T07:41:03.302Z,84.30
2023-05-15T07:42:03.280Z,84.20
2023-05-15T07:43:03.305Z,84.10
2023-05-15T07:44:06.311Z,84.41
2023-05-15T07:45:03.307Z,84.00
2023-05-15T07:46:03.251Z,84.00
2023-05-15T07:47:03.206Z,84.27
2023-05-15T07:48:03.205Z,83.55
2023-05-15T07:49:03.235Z,83.76
2023-05-15T07:50:03.140Z,83.21
2023-05-15T07:51:03.184Z,82.06
2023-05-15T07:52:03.138Z,81.55
2023-05-15T07:53:03.654Z,82.93
2023-05-15T07:54:03.088Z,81.17
2023-05-15T07:55:03.095Z,80.36
2023-05-15T07:56:03.072Z,79.82
2023-05-15T07:57:03.113Z,79.41
2023-05-15T07:58:03.080Z,79.79
2023-05-15T07:59:03.190Z,78.03
2023-05-15T08:00:03.016Z,77.73
2023-05-15T08:01:03.025Z,77.99
2023-05-15T08:02:03.247Z,77.08
2023-05-15T08:03:03.154Z,77.04
2023-05-15T08:04:03.055Z,74.73
2023-05-15T08:05:02.950Z,74.02
2023-05-15T08:06:02.970Z,73.82
2023-05-15T08:07:02.971Z,74.63
2023-05-15T08:08:02.988Z,75.03
2023-05-15T08:09:03.128Z,75.13
2023-05-15T08:10:02.904Z,74.79
2023-05-15T08:11:02.871Z,74.59
2023-05-15T08:12:02.905Z,73.85
2023-05-15T08:13:02.858Z,73.35
2023-05-15T08:14:02.861Z,73.85
2023-05-15T08:15:02.867Z,73.61
2023-05-15T08:16:02.850Z,71.80
2023-05-15T08:17:02.816Z,72.51
2023-05-15T08:18:02.834Z,71.20
2023-05-15T08:19:02.823Z,73.52
2023-05-15T08:20:02.796Z,71.56
2023-05-15T08:21:04.596Z,71.87
2023-05-15T08:22:02.751Z,71.56
2023-05-15T08:23:02.744Z,72.24
2023-05-15T08:24:02.719Z,71.63
2023-05-15T08:25:02.683Z,70.59
2023-05-15T08:26:02.723Z,69.89
2023-05-15T08:27:02.659Z,71.09
2023-05-15T08:28:02.680Z,71.06
2023-05-15T08:29:02.957Z,70.73
2023-05-15T08:30:02.651Z,69.62
2023-05-15T08:31:02.650Z,69.59
2023-05-15T08:32:02.640Z,68.99
2023-05-15T08:33:02.607Z,69.29
2023-05-15T08:34:02.599Z,69.69
2023-05-15T08:35:02.568Z,68.88
2023-05-15T08:36:02.627Z,68.32
2023-05-15T08:37:02.665Z,69.32
2023-05-15T08:38:02.677Z,69.22
2023-05-15T08:39:02.511Z,68.85
2023-05-15T08:40:02.506Z,68.75
2023-05-15T08:41:02.462Z,69.35
2023-05-15T08:42:02.500Z,68.35
2023-05-15T08:43:02.455Z,67.94
2023-05-15T08:44:02.477Z,68.25
2023-05-15T08:45:02.425Z,67.24
2023-05-15T08:46:02.795Z,67.82
2023-05-15T08:47:02.486Z,67.82
2023-05-15T08:48:02.464Z,68.38
2023-05-15T08:49:02.506Z,65.84
2023-05-15T08:50:04.935Z,65.44
2023-05-15T08:51:02.346Z,65.94
2023-05-15T08:52:02.392Z,66.17
2023-05-15T08:53:02.331Z,66.67
2023-05-15T08:54:02.325Z,66.67
2023-05-15T08:55:02.367Z,66.44
2023-05-15T08:56:02.328Z,65.24
2023-05-15T08:57:02.279Z,65.84
2023-05-15T08:58:02.282Z,66.58
2023-05-15T08:59:02.259Z,67.71
2023-05-15T09:00:02.265Z,68.02
2023-05-15T09:01:02.215Z,67.21
2023-05-15T09:02:02.276Z,68.12
2023-05-15T09:03:02.349Z,67.91
2023-05-15T09:04:02.491Z,67.28
2023-05-15T09:05:02.190Z,66.75
2023-05-15T09:06:02.170Z,64.71
2023-05-15T09:07:02.138Z,65.11
2023-05-15T09:08:02.163Z,65.51
2023-05-15T09:09:02.153Z,66.58
2023-05-15T09:10:02.123Z,66.05
2023-05-15T09:11:02.081Z,64.31
2023-05-15T09:12:02.094Z,61.91
2023-05-15T09:13:02.107Z,62.51
2023-05-15T09:14:02.074Z,61.91
2023-05-15T09:15:02.021Z,62.14
2023-05-15T09:16:02.080Z,63.70
2023-05-15T09:17:02.243Z,65.51
2023-05-15T09:18:02.091Z,65.81
2023-05-15T09:19:02.006Z,67.82
2023-05-15T09:20:02.001Z,67.08
2023-05-15T09:21:01.947Z,65.95
2023-05-15T09:22:02.004Z,64.25
2023-05-15T09:23:01.954Z,64.25
2023-05-15T09:24:01.939Z,64.92
2023-05-15T09:25:01.960Z,64.42
2023-05-15T09:26:01.958Z,63.78
2023-05-15T09:27:01.879Z,62.58
2023-05-15T09:28:01.894Z,63.45
2023-05-15T09:29:01.866Z,63.06
2023-05-15T09:30:01.862Z,61.02
2023-05-15T09:31:01.878Z,60.72
2023-05-15T09:32:01.848Z,60.72
2023-05-15T09:33:01.807Z,60.62
2023-05-15T09:34:01.788Z,60.32
2023-05-15T09:35:01.790Z,62.49
2023-05-15T09:36:01.810Z,60.96
2023-05-15T09:37:01.751Z,59.23
2023-05-15T09:38:01.822Z,59.39
2023-05-15T09:39:01.735Z,59.49
2023-05-15T09:40:01.755Z,60.52
2023-05-15T09:41:01.708Z,61.85
2023-05-15T09:42:01.705Z,62.55
2023-05-15T09:43:01.652Z,61.15
2023-05-15T09:44:01.706Z,61.05
2023-05-15T09:45:01.680Z,61.58
2023-05-15T09:46:01.754Z,61.38
2023-05-15T09:47:01.687Z,61.88
2023-05-15T09:48:01.707Z,60.45
2023-05-15T09:49:01.593Z,61.25
2023-05-15T09:50:01.617Z,60.62
2023-05-15T09:51:01.560Z,60.92
2023-05-15T09:52:01.593Z,60.92
2023-05-15T09:53:01.532Z,60.62
2023-05-15T09:54:01.548Z,60.05
2023-05-15T09:55:01.580Z,61.68
2023-05-15T09:56:01.510Z,60.18
2023-05-15T09:57:01.551Z,60.68
2023-05-15T09:58:01.650Z,61.88
2023-05-15T09:59:01.516Z,59.45
2023-05-15T10:00:01.447Z,61.15
2023-05-15T10:01:01.462Z,58.92
2023-05-15T10:02:01.476Z,56.32
2023-05-15T10:03:01.489Z,56.32
2023-05-15T10:04:01.451Z,55.85
2023-05-15T10:05:01.473Z,56.05
2023-05-15T10:06:01.402Z,56.67
2023-05-15T10:07:01.379Z,56.27
2023-05-15T10:08:01.385Z,56.95
2023-05-15T10:09:01.373Z,57.24
2023-05-15T10:10:01.342Z,57.62
2023-05-15T10:11:01.388Z,57.62
2023-05-15T10:12:01.347Z,59.02
2023-05-15T10:13:01.294Z,59.42
2023-05-15T10:14:01.299Z,57.62
2023-05-15T10:15:01.364Z,57.39
2023-05-15T10:16:01.280Z,58.49
2023-05-15T10:17:01.258Z,56.16
2023-05-15T10:18:01.294Z,54.99
2023-05-15T10:19:03.562Z,55.72
2023-05-15T10:20:01.250Z,55.72
2023-05-15T10:21:01.241Z,59.78
2023-05-15T10:22:01.164Z,62.28
2023-05-15T10:23:01.173Z,60.08
2023-05-15T10:24:01.148Z,61.78
2023-05-15T10:25:01.122Z,58.85
2023-05-15T10:26:01.139Z,57.32
2023-05-15T10:27:01.095Z,59.05
2023-05-15T10:28:01.108Z,60.58
2023-05-15T10:29:01.091Z,60.98
2023-05-15T10:30:01.125Z,58.28
2023-05-15T10:31:01.081Z,58.58
2023-05-15T10:32:01.052Z,59.18
2023-05-15T10:33:01.061Z,59.31
2023-05-15T10:34:01.026Z,60.81
2023-05-15T10:35:01.013Z,59.74
2023-05-15T10:36:01.017Z,59.77
2023-05-15T10:37:00.973Z,60.19
2023-05-15T10:38:00.981Z,61.60
2023-05-15T10:39:00.953Z,60.49
2023-05-15T10:40:00.955Z,60.52
2023-05-15T10:41:16.120Z,59.14
2023-05-15T10:42:00.926Z,59.78
2023-05-15T10:43:00.908Z,59.60
2023-05-15T10:44:00.888Z,60.00
2023-05-15T10:45:00.892Z,61.24
2023-05-15T10:46:00.881Z,61.98
2023-05-15T10:47:00.876Z,62.91
2023-05-15T10:48:00.882Z,63.95
2023-05-15T10:49:00.831Z,66.30
2023-05-15T10:50:00.807Z,68.04
2023-05-15T10:51:00.819Z,68.37
2023-05-15T10:52:00.790Z,69.21
2023-05-15T10:53:00.773Z,70.36
2023-05-15T10:54:00.760Z,71.91
2023-05-15T10:55:00.749Z,71.64
2023-05-15T10:56:00.774Z,72.14
2023-05-15T10:57:00.727Z,73.05
2023-05-15T10:58:00.748Z,75.07
2023-05-15T10:59:00.707Z,75.61
2023-05-15T11:00:00.741Z,77.23
2023-05-15T11:01:00.689Z,77.64
2023-05-15T11:02:00.663Z,78.58
2023-05-15T11:03:00.824Z,80.30
2023-05-15T11:04:00.646Z,81.01
2023-05-15T11:05:00.619Z,81.05
2023-05-15T11:06:00.612Z,81.96
2023-05-15T11:07:00.605Z,83.27
2023-05-15T11:08:00.613Z,84.12
2023-05-15T11:09:00.539Z,83.31
2023-05-15T11:10:00.597Z,83.11
2023-05-15T11:11:00.523Z,84.33
2023-05-15T11:12:00.530Z,84.63
2023-05-15T11:13:00.508Z,85.58
2023-05-15T11:14:00.517Z,85.07
2023-05-15T11:15:00.488Z,84.36
2023-05-15T11:16:00.489Z,84.83
2023-05-15T11:17:00.641Z,85.03
2023-05-15T11:18:00.554Z,85.24
2023-05-15T11:19:00.460Z,85.54
2023-05-15T11:20:00.476Z,83.51
2023-05-15T11:21:00.384Z,84.12
2023-05-15T11:22:00.399Z,84.59
2023-05-15T11:23:00.353Z,84.79
2023-05-15T11:24:00.357Z,85.80
2023-05-15T11:25:00.357Z,85.86
2023-05-15T11:26:00.333Z,85.96
2023-05-15T11:27:00.300Z,85.46
2023-05-15T11:28:00.328Z,85.66
2023-05-15T11:29:00.284Z,86.07
2023-05-15T11:30:00.331Z,86.27
2023-05-15T11:31:00.281Z,85.46
2023-05-15T11:32:00.292Z,84.95
2023-05-15T11:33:00.296Z,85.66
2023-05-15T11:34:00.247Z,85.86
2023-05-15T11:35:00.239Z,85.86
2023-05-15T11:36:00.207Z,85.96
2023-05-15T11:37:00.180Z,85.50
2023-05-15T11:38:00.188Z,86.47
2023-05-15T11:39:00.142Z,86.98
2023-05-15T11:40:00.198Z,87.08
2023-05-15T11:41:00.160Z,86.98
2023-05-15T11:42:01.062Z,86.77
2023-05-15T11:43:00.092Z,87.54
2023-05-15T11:44:00.139Z,88.45
2023-05-15T11:45:00.068Z,87.64
2023-05-15T11:46:00.162Z,87.81
2023-05-15T11:47:00.152Z,88.41
2023-05-15T11:48:00.092Z,87.56
2023-05-15T11:49:00.216Z,87.26
2023-05-15T11:50:00.055Z,85.19
2023-05-15T11:51:00.002Z,84.99
2023-05-15T11:51:59.989Z,84.79
2023-05-15T11:52:59.963Z,84.59
2023-05-15T11:53:59.999Z,83.74
2023-05-15T11:54:59.982Z,82.53
2023-05-15T11:55:59.964Z,82.13
2023-05-15T11:56:59.963Z,82.79
2023-05-15T11:57:59.925Z,84.47
2023-05-15T11:58:59.907Z,82.45
2023-05-15T11:59:59.891Z,80.64
2023-05-15T12:00:59.865Z,78.72
2023-05-15T12:01:59.909Z,80.50
2023-05-15T12:02:59.969Z,77.78
2023-05-15T12:04:00.069Z,75.96
2023-05-15T12:04:59.858Z,76.47
2023-05-15T12:06:00.395Z,77.68
2023-05-15T12:07:01.600Z,76.27
2023-05-15T12:07:59.778Z,74.35
2023-05-15T12:08:59.755Z,73.05
2023-05-15T12:09:59.774Z,72.71
2023-05-15T12:10:59.730Z,72.71
2023-05-15T12:11:59.778Z,73.21
2023-05-15T12:12:59.698Z,73.82
2023-05-15T12:13:59.708Z,71.70
2023-05-15T12:14:59.719Z,72.67
2023-05-15T12:15:59.723Z,72.17
2023-05-15T12:16:59.717Z,71.47
2023-05-15T12:17:59.726Z,70.46
2023-05-15T12:18:59.683Z,72.84
2023-05-15T12:19:59.642Z,72.14
2023-05-15T12:20:59.636Z,70.32
2023-05-15T12:21:59.609Z,71.53
2023-05-15T12:22:59.623Z,71.23
2023-05-15T12:24:07.880Z,71.73
2023-05-15T12:24:59.537Z,72.84
2023-05-15T12:25:59.551Z,73.65
2023-05-15T12:26:59.538Z,72.64
2023-05-15T12:27:59.564Z,71.03
2023-05-15T12:28:59.482Z,69.52
2023-05-15T12:29:59.526Z,69.62
2023-05-15T12:30:59.521Z,69.82
2023-05-15T12:31:59.512Z,70.86
2023-05-15T12:32:59.476Z,71.67
2023-05-15T12:33:59.461Z,72.27
2023-05-15T12:34:59.412Z,73.28
2023-05-15T12:36:01.632Z,70.66
2023-05-15T12:36:59.484Z,68.75
2023-05-15T12:37:59.410Z,68.35
2023-05-15T12:38:59.357Z,66.27
2023-05-15T12:39:59.394Z,66.97
2023-05-15T12:40:59.350Z,69.29
2023-05-15T12:41:59.377Z,70.50
2023-05-15T12:42:59.304Z,70.09
2023-05-15T12:43:59.331Z,70.29
2023-05-15T12:44:59.282Z,68.78
2023-05-15T12:45:59.336Z,70.70
2023-05-15T12:46:59.282Z,70.70
2023-05-15T12:47:59.325Z,71.50
2023-05-15T12:48:59.251Z,73.11
2023-05-15T12:49:59.278Z,73.32
2023-05-15T12:50:59.220Z,73.28
2023-05-15T12:51:59.227Z,72.97